sensor_id;sensor_type;location;lat;lon;timestamp;P1;durP1;ratioP1;P2;durP2;ratioP2
11024;SDS011;22890;51.820;8.682;2024-02-28T00:02:10;13.57;;;7.50;;
11024;SDS011;22890;51.820;8.682;2024-02-28T00:04:39;16.60;;;8.73;;
11024;SDS011;22890;51.820;8.682;2024-02-28T00:07:06;18.77;;;9.17;;
11024;SDS011;22890;51.820;8.682;2024-02-28T00:09:33;17.67;;;8.40;;
11024;SDS011;22890;51.820;8.682;2024-02-28T00:11:59;16.30;;;8.57;;
11024;SDS011;22890;51.820;8.682;2024-02-28T00:14:27;13.80;;;7.43;;
11024;SDS011;22890;51.820;8.682;2024-02-28T00:16:54;13.77;;;8.50;;
11024;SDS011;22890;51.820;8.682;2024-02-28T00:19:20;16.47;;;7.50;;
11024;SDS011;22890;51.820;8.682;2024-02-28T00:21:48;15.63;;;8.50;;
11024;SDS011;22890;51.820;8.682;2024-02-28T00:24:15;16.77;;;8.03;;
11024;SDS011;22890;51.820;8.682;2024-02-28T00:26:43;14.93;;;7.93;;
11024;SDS011;22890;51.820;8.682;2024-02-28T00:29:10;19.40;;;10.17;;
11024;SDS011;22890;51.820;8.682;2024-02-28T00:31:36;15.77;;;8.37;;
11024;SDS011;22890;51.820;8.682;2024-02-28T00:34:03;14.33;;;8.37;;
11024;SDS011;22890;51.820;8.682;2024-02-28T00:36:30;16.50;;;8.70;;
11024;SDS011;22890;51.820;8.682;2024-02-28T00:39:13;17.53;;;7.90;;
11024;SDS011;22890;51.820;8.682;2024-02-28T00:41:40;27.53;;;9.63;;
11024;SDS011;22890;51.820;8.682;2024-02-28T00:44:07;16.70;;;8.30;;
11024;SDS011;22890;51.820;8.682;2024-02-28T00:46:35;16.90;;;8.50;;
11024;SDS011;22890;51.820;8.682;2024-02-28T00:49:01;15.47;;;8.80;;
11024;SDS011;22890;51.820;8.682;2024-02-28T00:51:28;16.37;;;8.50;;
11024;SDS011;22890;51.820;8.682;2024-02-28T00:53:55;14.77;;;7.67;;
11024;SDS011;22890;51.820;8.682;2024-02-28T00:56:22;16.40;;;8.23;;
11024;SDS011;22890;51.820;8.682;2024-02-28T00:58:50;15.07;;;7.83;;
11024;SDS011;22890;51.820;8.682;2024-02-28T01:01:17;14.83;;;7.87;;
11024;SDS011;22890;51.820;8.682;2024-02-28T01:03:44;13.70;;;7.53;;
11024;SDS011;22890;51.820;8.682;2024-02-28T01:06:10;16.00;;;8.17;;
11024;SDS011;22890;51.820;8.682;2024-02-28T01:08:37;16.07;;;8.50;;
11024;SDS011;22890;51.820;8.682;2024-02-28T01:11:04;17.10;;;8.07;;
11024;SDS011;22890;51.820;8.682;2024-02-28T01:13:31;12.70;;;6.93;;
11024;SDS011;22890;51.820;8.682;2024-02-28T01:15:58;15.13;;;8.07;;
11024;SDS011;22890;51.820;8.682;2024-02-28T01:18:26;16.93;;;9.60;;
11024;SDS011;22890;51.820;8.682;2024-02-28T01:20:56;15.10;;;7.80;;
11024;SDS011;22890;51.820;8.682;2024-02-28T01:23:23;15.77;;;8.57;;
11024;SDS011;22890;51.820;8.682;2024-02-28T01:25:50;15.70;;;8.47;;
11024;SDS011;22890;51.820;8.682;2024-02-28T01:28:17;13.43;;;8.70;;
11024;SDS011;22890;51.820;8.682;2024-02-28T01:30:44;16.23;;;8.70;;
11024;SDS011;22890;51.820;8.682;2024-02-28T01:33:10;17.73;;;9.07;;
11024;SDS011;22890;51.820;8.682;2024-02-28T01:35:39;14.13;;;7.90;;
11024;SDS011;22890;51.820;8.682;2024-02-28T01:38:05;18.10;;;8.00;;
11024;SDS011;22890;51.820;8.682;2024-02-28T01:40:33;16.37;;;8.37;;
11024;SDS011;22890;51.820;8.682;2024-02-28T01:43:03;15.60;;;8.67;;
11024;SDS011;22890;51.820;8.682;2024-02-28T01:45:33;15.83;;;7.87;;
11024;SDS011;22890;51.820;8.682;2024-02-28T01:48:01;17.13;;;8.47;;
11024;SDS011;22890;51.820;8.682;2024-02-28T01:50:28;15.80;;;7.90;;
11024;SDS011;22890;51.820;8.682;2024-02-28T01:52:55;15.87;;;8.47;;
11024;SDS011;22890;51.820;8.682;2024-02-28T01:55:22;17.93;;;9.03;;
11024;SDS011;22890;51.820;8.682;2024-02-28T01:57:50;13.40;;;8.40;;
11024;SDS011;22890;51.820;8.682;2024-02-28T02:00:18;18.93;;;9.77;;
11024;SDS011;22890;51.820;8.682;2024-02-28T02:02:47;20.07;;;9.83;;
11024;SDS011;22890;51.820;8.682;2024-02-28T02:05:14;16.33;;;8.77;;
11024;SDS011;22890;51.820;8.682;2024-02-28T02:07:42;19.43;;;9.70;;
11024;SDS011;22890;51.820;8.682;2024-02-28T02:10:09;24.07;;;9.97;;
11024;SDS011;22890;51.820;8.682;2024-02-28T02:12:38;18.50;;;8.83;;
11024;SDS011;22890;51.820;8.682;2024-02-28T02:15:05;21.00;;;9.37;;
11024;SDS011;22890;51.820;8.682;2024-02-28T02:17:32;17.83;;;8.90;;
11024;SDS011;22890;51.820;8.682;2024-02-28T02:19:59;15.97;;;8.00;;
11024;SDS011;22890;51.820;8.682;2024-02-28T02:22:27;18.07;;;9.00;;
11024;SDS011;22890;51.820;8.682;2024-02-28T02:24:57;20.93;;;10.00;;
11024;SDS011;22890;51.820;8.682;2024-02-28T02:27:24;20.17;;;9.80;;
11024;SDS011;22890;51.820;8.682;2024-02-28T02:29:52;21.10;;;10.27;;
11024;SDS011;22890;51.820;8.682;2024-02-28T02:32:18;21.70;;;10.27;;
11024;SDS011;22890;51.820;8.682;2024-02-28T02:34:46;22.97;;;10.23;;
11024;SDS011;22890;51.820;8.682;2024-02-28T02:37:13;16.87;;;8.67;;
11024;SDS011;22890;51.820;8.682;2024-02-28T02:39:39;16.37;;;9.80;;
11024;SDS011;22890;51.820;8.682;2024-02-28T02:42:06;18.27;;;9.93;;
11024;SDS011;22890;51.820;8.682;2024-02-28T02:44:34;19.10;;;9.40;;
11024;SDS011;22890;51.820;8.682;2024-02-28T02:47:01;20.87;;;9.87;;
11024;SDS011;22890;51.820;8.682;2024-02-28T02:49:28;22.47;;;11.00;;
11024;SDS011;22890;51.820;8.682;2024-02-28T02:51:54;19.33;;;10.40;;
11024;SDS011;22890;51.820;8.682;2024-02-28T02:54:21;18.77;;;9.57;;
11024;SDS011;22890;51.820;8.682;2024-02-28T02:56:48;26.43;;;10.43;;
11024;SDS011;22890;51.820;8.682;2024-02-28T02:59:15;23.77;;;10.97;;
11024;SDS011;22890;51.820;8.682;2024-02-28T03:01:41;20.33;;;10.77;;
11024;SDS011;22890;51.820;8.682;2024-02-28T03:04:08;23.77;;;10.67;;
11024;SDS011;22890;51.820;8.682;2024-02-28T03:06:35;23.77;;;11.13;;
11024;SDS011;22890;51.820;8.682;2024-02-28T03:09:02;24.10;;;11.83;;
11024;SDS011;22890;51.820;8.682;2024-02-28T03:11:29;26.83;;;12.23;;
11024;SDS011;22890;51.820;8.682;2024-02-28T03:13:56;29.00;;;12.17;;
11024;SDS011;22890;51.820;8.682;2024-02-28T03:16:23;34.90;;;13.90;;
11024;SDS011;22890;51.820;8.682;2024-02-28T03:18:50;39.80;;;13.80;;
11024;SDS011;22890;51.820;8.682;2024-02-28T03:21:17;34.70;;;13.93;;
11024;SDS011;22890;51.820;8.682;2024-02-28T03:23:44;34.30;;;14.50;;
11024;SDS011;22890;51.820;8.682;2024-02-28T03:26:11;38.77;;;15.03;;
11024;SDS011;22890;51.820;8.682;2024-02-28T03:28:38;36.80;;;14.83;;
11024;SDS011;22890;51.820;8.682;2024-02-28T03:31:04;66.03;;;17.40;;
11024;SDS011;22890;51.820;8.682;2024-02-28T03:33:31;46.13;;;17.67;;
11024;SDS011;22890;51.820;8.682;2024-02-28T03:35:59;36.33;;;14.87;;
11024;SDS011;22890;51.820;8.682;2024-02-28T03:38:25;69.13;;;16.90;;
11024;SDS011;22890;51.820;8.682;2024-02-28T03:40:52;52.70;;;18.53;;
11024;SDS011;22890;51.820;8.682;2024-02-28T03:43:19;47.47;;;16.20;;
11024;SDS011;22890;51.820;8.682;2024-02-28T03:45:45;57.50;;;16.93;;
11024;SDS011;22890;51.820;8.682;2024-02-28T03:48:12;49.97;;;18.50;;
11024;SDS011;22890;51.820;8.682;2024-02-28T03:50:39;47.80;;;17.20;;
11024;SDS011;22890;51.820;8.682;2024-02-28T03:53:06;48.70;;;17.33;;
11024;SDS011;22890;51.820;8.682;2024-02-28T03:55:32;53.07;;;19.07;;
11024;SDS011;22890;51.820;8.682;2024-02-28T03:57:59;48.47;;;18.83;;
11024;SDS011;22890;51.820;8.682;2024-02-28T04:00:26;47.10;;;17.53;;
11024;SDS011;22890;51.820;8.682;2024-02-28T04:02:53;57.90;;;19.77;;
11024;SDS011;22890;51.820;8.682;2024-02-28T04:05:20;64.20;;;20.17;;
11024;SDS011;22890;51.820;8.682;2024-02-28T04:07:46;65.10;;;19.33;;
11024;SDS011;22890;51.820;8.682;2024-02-28T04:10:13;69.70;;;18.47;;
11024;SDS011;22890;51.820;8.682;2024-02-28T04:12:42;89.83;;;21.67;;
11024;SDS011;22890;51.820;8.682;2024-02-28T04:15:11;59.47;;;18.63;;
11024;SDS011;22890;51.820;8.682;2024-02-28T04:17:41;48.97;;;17.87;;
11024;SDS011;22890;51.820;8.682;2024-02-28T04:20:12;45.43;;;17.20;;
11024;SDS011;22890;51.820;8.682;2024-02-28T04:22:39;83.43;;;18.33;;
11024;SDS011;22890;51.820;8.682;2024-02-28T04:25:07;85.47;;;18.00;;
11024;SDS011;22890;51.820;8.682;2024-02-28T04:27:35;79.53;;;18.90;;
11024;SDS011;22890;51.820;8.682;2024-02-28T04:30:03;51.70;;;18.20;;
11024;SDS011;22890;51.820;8.682;2024-02-28T04:32:30;117.30;;;21.00;;
11024;SDS011;22890;51.820;8.682;2024-02-28T04:34:57;48.17;;;16.83;;
11024;SDS011;22890;51.820;8.682;2024-02-28T04:37:24;103.83;;;19.23;;
11024;SDS011;22890;51.820;8.682;2024-02-28T04:39:51;99.83;;;21.23;;
11024;SDS011;22890;51.820;8.682;2024-02-28T04:42:17;107.90;;;20.77;;
11024;SDS011;22890;51.820;8.682;2024-02-28T04:44:44;93.53;;;19.20;;
11024;SDS011;22890;51.820;8.682;2024-02-28T04:47:11;88.73;;;18.80;;
11024;SDS011;22890;51.820;8.682;2024-02-28T04:49:38;67.33;;;17.90;;
11024;SDS011;22890;51.820;8.682;2024-02-28T04:52:05;61.87;;;18.10;;
11024;SDS011;22890;51.820;8.682;2024-02-28T04:54:32;61.60;;;16.43;;
11024;SDS011;22890;51.820;8.682;2024-02-28T04:56:59;74.53;;;18.70;;
11024;SDS011;22890;51.820;8.682;2024-02-28T04:59:26;66.63;;;18.97;;
11024;SDS011;22890;51.820;8.682;2024-02-28T05:01:53;67.60;;;16.83;;
11024;SDS011;22890;51.820;8.682;2024-02-28T05:04:20;62.00;;;16.03;;
11024;SDS011;22890;51.820;8.682;2024-02-28T05:06:47;82.67;;;18.77;;
11024;SDS011;22890;51.820;8.682;2024-02-28T05:09:14;65.93;;;19.37;;
11024;SDS011;22890;51.820;8.682;2024-02-28T05:11:41;89.53;;;19.73;;
11024;SDS011;22890;51.820;8.682;2024-02-28T05:14:08;73.90;;;16.40;;
11024;SDS011;22890;51.820;8.682;2024-02-28T05:16:36;66.07;;;18.40;;
11024;SDS011;22890;51.820;8.682;2024-02-28T05:19:03;76.57;;;18.20;;
11024;SDS011;22890;51.820;8.682;2024-02-28T05:21:31;63.10;;;18.20;;
11024;SDS011;22890;51.820;8.682;2024-02-28T05:23:57;62.30;;;19.07;;
11024;SDS011;22890;51.820;8.682;2024-02-28T05:26:24;62.40;;;18.83;;
11024;SDS011;22890;51.820;8.682;2024-02-28T05:28:52;53.50;;;18.63;;
11024;SDS011;22890;51.820;8.682;2024-02-28T05:31:20;72.10;;;20.57;;
11024;SDS011;22890;51.820;8.682;2024-02-28T05:33:52;70.27;;;19.20;;
11024;SDS011;22890;51.820;8.682;2024-02-28T05:36:21;91.40;;;21.20;;
11024;SDS011;22890;51.820;8.682;2024-02-28T05:38:49;65.10;;;17.67;;
11024;SDS011;22890;51.820;8.682;2024-02-28T05:41:16;95.83;;;19.87;;
11024;SDS011;22890;51.820;8.682;2024-02-28T05:43:44;73.87;;;20.00;;
11024;SDS011;22890;51.820;8.682;2024-02-28T05:46:11;80.47;;;20.17;;
11024;SDS011;22890;51.820;8.682;2024-02-28T05:48:42;62.33;;;18.43;;
11024;SDS011;22890;51.820;8.682;2024-02-28T05:51:10;68.57;;;19.50;;
11024;SDS011;22890;51.820;8.682;2024-02-28T05:53:37;66.20;;;18.80;;
11024;SDS011;22890;51.820;8.682;2024-02-28T05:56:05;139.90;;;31.02;;
11024;SDS011;22890;51.820;8.682;2024-02-28T05:58:39;102.83;;;23.03;;
11024;SDS011;22890;51.820;8.682;2024-02-28T06:01:08;98.97;;;22.67;;
11024;SDS011;22890;51.820;8.682;2024-02-28T06:03:38;83.90;;;20.20;;
11024;SDS011;22890;51.820;8.682;2024-02-28T06:06:05;84.73;;;21.20;;
11024;SDS011;22890;51.820;8.682;2024-02-28T06:08:39;60.57;;;18.70;;
11024;SDS011;22890;51.820;8.682;2024-02-28T06:11:07;93.30;;;21.00;;
11024;SDS011;22890;51.820;8.682;2024-02-28T06:13:34;80.63;;;19.93;;
11024;SDS011;22890;51.820;8.682;2024-02-28T06:16:01;87.97;;;19.57;;
11024;SDS011;22890;51.820;8.682;2024-02-28T06:18:29;99.23;;;20.80;;
11024;SDS011;22890;51.820;8.682;2024-02-28T06:21:00;90.57;;;24.57;;
11024;SDS011;22890;51.820;8.682;2024-02-28T06:23:28;60.37;;;21.13;;
11024;SDS011;22890;51.820;8.682;2024-02-28T06:25:58;78.10;;;21.53;;
11024;SDS011;22890;51.820;8.682;2024-02-28T06:28:25;58.87;;;19.13;;
11024;SDS011;22890;51.820;8.682;2024-02-28T06:30:52;62.93;;;20.40;;
11024;SDS011;22890;51.820;8.682;2024-02-28T06:33:19;51.33;;;17.47;;
11024;SDS011;22890;51.820;8.682;2024-02-28T06:35:46;47.47;;;18.40;;
11024;SDS011;22890;51.820;8.682;2024-02-28T06:38:12;58.73;;;18.80;;
11024;SDS011;22890;51.820;8.682;2024-02-28T06:40:39;65.00;;;19.67;;
11024;SDS011;22890;51.820;8.682;2024-02-28T06:43:07;59.50;;;18.47;;
11024;SDS011;22890;51.820;8.682;2024-02-28T06:45:34;52.30;;;18.37;;
11024;SDS011;22890;51.820;8.682;2024-02-28T06:48:01;67.90;;;19.50;;
11024;SDS011;22890;51.820;8.682;2024-02-28T06:50:29;88.60;;;18.40;;
11024;SDS011;22890;51.820;8.682;2024-02-28T06:52:56;72.50;;;18.37;;
11024;SDS011;22890;51.820;8.682;2024-02-28T06:55:22;66.57;;;19.73;;
11024;SDS011;22890;51.820;8.682;2024-02-28T06:57:50;69.83;;;18.80;;
11024;SDS011;22890;51.820;8.682;2024-02-28T07:00:16;68.57;;;20.50;;
11024;SDS011;22890;51.820;8.682;2024-02-28T07:02:45;65.83;;;18.37;;
11024;SDS011;22890;51.820;8.682;2024-02-28T07:05:12;69.27;;;19.90;;
11024;SDS011;22890;51.820;8.682;2024-02-28T07:07:39;82.37;;;21.30;;
11024;SDS011;22890;51.820;8.682;2024-02-28T07:10:06;59.50;;;20.20;;
11024;SDS011;22890;51.820;8.682;2024-02-28T07:12:33;55.67;;;19.23;;
11024;SDS011;22890;51.820;8.682;2024-02-28T07:15:00;63.50;;;18.60;;
11024;SDS011;22890;51.820;8.682;2024-02-28T07:17:27;72.70;;;20.33;;
11024;SDS011;22890;51.820;8.682;2024-02-28T07:19:53;52.87;;;19.80;;
11024;SDS011;22890;51.820;8.682;2024-02-28T07:22:20;56.27;;;17.93;;
11024;SDS011;22890;51.820;8.682;2024-02-28T07:24:47;92.57;;;21.43;;
11024;SDS011;22890;51.820;8.682;2024-02-28T07:27:14;68.53;;;19.43;;
11024;SDS011;22890;51.820;8.682;2024-02-28T07:29:42;72.23;;;19.37;;
11024;SDS011;22890;51.820;8.682;2024-02-28T07:32:08;61.73;;;19.03;;
11024;SDS011;22890;51.820;8.682;2024-02-28T07:34:35;62.40;;;18.37;;
11024;SDS011;22890;51.820;8.682;2024-02-28T07:37:02;72.53;;;19.33;;
11024;SDS011;22890;51.820;8.682;2024-02-28T07:39:30;72.97;;;20.37;;
11024;SDS011;22890;51.820;8.682;2024-02-28T07:41:56;72.97;;;20.37;;
11024;SDS011;22890;51.820;8.682;2024-02-28T07:44:23;87.97;;;19.80;;
11024;SDS011;22890;51.820;8.682;2024-02-28T07:46:50;58.17;;;19.90;;
11024;SDS011;22890;51.820;8.682;2024-02-28T07:49:17;91.43;;;22.20;;
11024;SDS011;22890;51.820;8.682;2024-02-28T07:51:44;93.47;;;24.27;;
11024;SDS011;22890;51.820;8.682;2024-02-28T07:54:12;78.67;;;20.80;;
11024;SDS011;22890;51.820;8.682;2024-02-28T07:56:39;71.10;;;22.13;;
11024;SDS011;22890;51.820;8.682;2024-02-28T07:59:05;65.00;;;21.97;;
11024;SDS011;22890;51.820;8.682;2024-02-28T08:01:33;76.07;;;21.57;;
11024;SDS011;22890;51.820;8.682;2024-02-28T08:04:00;53.10;;;20.47;;
11024;SDS011;22890;51.820;8.682;2024-02-28T08:06:28;67.83;;;21.70;;
11024;SDS011;22890;51.820;8.682;2024-02-28T08:08:55;71.33;;;22.03;;
11024;SDS011;22890;51.820;8.682;2024-02-28T08:11:21;69.13;;;22.03;;
11024;SDS011;22890;51.820;8.682;2024-02-28T08:13:49;70.47;;;22.37;;
11024;SDS011;22890;51.820;8.682;2024-02-28T08:16:16;77.17;;;22.27;;
11024;SDS011;22890;51.820;8.682;2024-02-28T08:18:43;66.87;;;22.47;;
11024;SDS011;22890;51.820;8.682;2024-02-28T08:21:10;74.93;;;23.50;;
11024;SDS011;22890;51.820;8.682;2024-02-28T08:23:37;78.30;;;23.23;;
11024;SDS011;22890;51.820;8.682;2024-02-28T08:26:04;81.30;;;21.77;;
11024;SDS011;22890;51.820;8.682;2024-02-28T08:28:31;88.87;;;23.30;;
11024;SDS011;22890;51.820;8.682;2024-02-28T08:30:58;68.07;;;23.53;;
11024;SDS011;22890;51.820;8.682;2024-02-28T08:33:25;65.60;;;22.70;;
11024;SDS011;22890;51.820;8.682;2024-02-28T08:35:52;59.00;;;21.77;;
11024;SDS011;22890;51.820;8.682;2024-02-28T08:38:20;73.13;;;22.10;;
11024;SDS011;22890;51.820;8.682;2024-02-28T08:40:46;77.53;;;23.27;;
11024;SDS011;22890;51.820;8.682;2024-02-28T08:43:13;64.00;;;21.57;;
11024;SDS011;22890;51.820;8.682;2024-02-28T08:45:40;60.43;;;20.73;;
11024;SDS011;22890;51.820;8.682;2024-02-28T08:48:07;60.07;;;21.57;;
11024;SDS011;22890;51.820;8.682;2024-02-28T08:50:34;60.53;;;23.57;;
11024;SDS011;22890;51.820;8.682;2024-02-28T08:53:01;60.97;;;23.00;;
11024;SDS011;22890;51.820;8.682;2024-02-28T08:55:29;62.73;;;22.73;;
11024;SDS011;22890;51.820;8.682;2024-02-28T08:57:57;69.50;;;22.30;;
11024;SDS011;22890;51.820;8.682;2024-02-28T09:00:24;56.13;;;21.27;;
11024;SDS011;22890;51.820;8.682;2024-02-28T09:02:51;62.57;;;23.23;;
11024;SDS011;22890;51.820;8.682;2024-02-28T09:05:18;62.33;;;21.83;;
11024;SDS011;22890;51.820;8.682;2024-02-28T09:07:45;57.23;;;23.10;;
11024;SDS011;22890;51.820;8.682;2024-02-28T09:10:17;59.47;;;22.97;;
11024;SDS011;22890;51.820;8.682;2024-02-28T09:12:50;62.40;;;24.57;;
11024;SDS011;22890;51.820;8.682;2024-02-28T09:15:17;54.17;;;21.30;;
11024;SDS011;22890;51.820;8.682;2024-02-28T09:17:43;65.27;;;24.57;;
11024;SDS011;22890;51.820;8.682;2024-02-28T09:20:11;71.30;;;24.43;;
11024;SDS011;22890;51.820;8.682;2024-02-28T09:22:38;61.00;;;22.80;;
11024;SDS011;22890;51.820;8.682;2024-02-28T09:25:06;70.03;;;24.27;;
11024;SDS011;22890;51.820;8.682;2024-02-28T09:27:35;61.47;;;22.10;;
11024;SDS011;22890;51.820;8.682;2024-02-28T09:30:03;73.67;;;23.53;;
11024;SDS011;22890;51.820;8.682;2024-02-28T09:32:30;69.47;;;25.13;;
11024;SDS011;22890;51.820;8.682;2024-02-28T09:34:57;64.63;;;23.37;;
11024;SDS011;22890;51.820;8.682;2024-02-28T09:37:23;76.23;;;25.50;;
11024;SDS011;22890;51.820;8.682;2024-02-28T09:39:51;78.40;;;23.40;;
11024;SDS011;22890;51.820;8.682;2024-02-28T09:42:18;75.77;;;28.10;;
11024;SDS011;22890;51.820;8.682;2024-02-28T09:44:46;83.53;;;28.20;;
11024;SDS011;22890;51.820;8.682;2024-02-28T09:47:13;76.70;;;26.00;;
11024;SDS011;22890;51.820;8.682;2024-02-28T09:49:41;70.93;;;26.43;;
11024;SDS011;22890;51.820;8.682;2024-02-28T09:52:09;82.40;;;28.17;;
11024;SDS011;22890;51.820;8.682;2024-02-28T09:54:35;78.63;;;26.63;;
11024;SDS011;22890;51.820;8.682;2024-02-28T09:57:03;79.80;;;26.13;;
11024;SDS011;22890;51.820;8.682;2024-02-28T09:59:30;89.97;;;30.87;;
11024;SDS011;22890;51.820;8.682;2024-02-28T10:02:13;96.33;;;32.50;;
11024;SDS011;22890;51.820;8.682;2024-02-28T10:04:43;93.53;;;31.50;;
11024;SDS011;22890;51.820;8.682;2024-02-28T10:07:11;88.83;;;31.80;;
11024;SDS011;22890;51.820;8.682;2024-02-28T10:09:40;85.57;;;31.33;;
11024;SDS011;22890;51.820;8.682;2024-02-28T10:12:10;85.13;;;28.53;;
11024;SDS011;22890;51.820;8.682;2024-02-28T10:14:36;99.90;;;36.10;;
11024;SDS011;22890;51.820;8.682;2024-02-28T10:17:04;84.20;;;30.10;;
11024;SDS011;22890;51.820;8.682;2024-02-28T10:19:32;102.80;;;32.80;;
11024;SDS011;22890;51.820;8.682;2024-02-28T10:21:58;85.73;;;32.00;;
11024;SDS011;22890;51.820;8.682;2024-02-28T10:24:26;81.80;;;30.17;;
11024;SDS011;22890;51.820;8.682;2024-02-28T10:26:53;93.07;;;30.20;;
11024;SDS011;22890;51.820;8.682;2024-02-28T10:29:23;82.00;;;30.23;;
11024;SDS011;22890;51.820;8.682;2024-02-28T10:31:51;84.30;;;30.67;;
11024;SDS011;22890;51.820;8.682;2024-02-28T10:34:18;80.43;;;32.27;;
11024;SDS011;22890;51.820;8.682;2024-02-28T10:36:46;75.03;;;28.93;;
11024;SDS011;22890;51.820;8.682;2024-02-28T10:39:13;80.47;;;30.73;;
11024;SDS011;22890;51.820;8.682;2024-02-28T10:41:41;86.67;;;31.73;;
11024;SDS011;22890;51.820;8.682;2024-02-28T10:44:09;84.03;;;31.90;;
11024;SDS011;22890;51.820;8.682;2024-02-28T10:46:40;81.00;;;30.73;;
11024;SDS011;22890;51.820;8.682;2024-02-28T10:49:09;83.60;;;30.33;;
11024;SDS011;22890;51.820;8.682;2024-02-28T10:51:37;88.87;;;32.40;;
11024;SDS011;22890;51.820;8.682;2024-02-28T10:54:09;77.47;;;30.03;;
11024;SDS011;22890;51.820;8.682;2024-02-28T10:56:38;90.40;;;32.20;;
11024;SDS011;22890;51.820;8.682;2024-02-28T10:59:07;81.57;;;31.87;;
11024;SDS011;22890;51.820;8.682;2024-02-28T11:01:38;74.67;;;29.50;;
11024;SDS011;22890;51.820;8.682;2024-02-28T11:04:08;83.63;;;31.57;;
11024;SDS011;22890;51.820;8.682;2024-02-28T11:06:47;88.27;;;32.10;;
11024;SDS011;22890;51.820;8.682;2024-02-28T11:09:19;85.97;;;30.77;;
11024;SDS011;22890;51.820;8.682;2024-02-28T11:11:49;80.43;;;30.73;;
11024;SDS011;22890;51.820;8.682;2024-02-28T11:14:17;89.50;;;30.50;;
11024;SDS011;22890;51.820;8.682;2024-02-28T11:16:48;76.93;;;29.77;;
11024;SDS011;22890;51.820;8.682;2024-02-28T11:19:28;80.47;;;32.10;;
11024;SDS011;22890;51.820;8.682;2024-02-28T11:21:57;88.13;;;32.80;;
11024;SDS011;22890;51.820;8.682;2024-02-28T11:24:29;88.43;;;34.37;;
11024;SDS011;22890;51.820;8.682;2024-02-28T11:26:57;86.50;;;33.37;;
11024;SDS011;22890;51.820;8.682;2024-02-28T11:29:24;81.30;;;32.03;;
11024;SDS011;22890;51.820;8.682;2024-02-28T11:31:52;79.47;;;32.10;;
11024;SDS011;22890;51.820;8.682;2024-02-28T11:34:20;77.23;;;30.83;;
11024;SDS011;22890;51.820;8.682;2024-02-28T11:36:48;81.80;;;32.13;;
11024;SDS011;22890;51.820;8.682;2024-02-28T11:39:15;81.23;;;31.20;;
11024;SDS011;22890;51.820;8.682;2024-02-28T11:41:43;90.83;;;33.83;;
11024;SDS011;22890;51.820;8.682;2024-02-28T11:44:15;69.97;;;29.50;;
11024;SDS011;22890;51.820;8.682;2024-02-28T11:46:43;80.10;;;33.60;;
11024;SDS011;22890;51.820;8.682;2024-02-28T11:49:13;74.77;;;29.63;;
11024;SDS011;22890;51.820;8.682;2024-02-28T11:51:41;81.33;;;32.70;;
11024;SDS011;22890;51.820;8.682;2024-02-28T11:54:09;70.30;;;30.37;;
11024;SDS011;22890;51.820;8.682;2024-02-28T11:56:39;80.63;;;31.37;;
11024;SDS011;22890;51.820;8.682;2024-02-28T11:59:08;72.50;;;30.10;;
11024;SDS011;22890;51.820;8.682;2024-02-28T12:01:38;75.60;;;30.70;;
11024;SDS011;22890;51.820;8.682;2024-02-28T12:04:07;64.10;;;28.73;;
11024;SDS011;22890;51.820;8.682;2024-02-28T12:06:35;65.87;;;28.43;;
11024;SDS011;22890;51.820;8.682;2024-02-28T12:09:06;61.93;;;29.60;;
11024;SDS011;22890;51.820;8.682;2024-02-28T12:11:41;60.50;;;26.57;;
11024;SDS011;22890;51.820;8.682;2024-02-28T12:14:08;63.77;;;26.77;;
11024;SDS011;22890;51.820;8.682;2024-02-28T12:16:36;59.70;;;27.57;;
11024;SDS011;22890;51.820;8.682;2024-02-28T12:19:06;63.80;;;28.83;;
11024;SDS011;22890;51.820;8.682;2024-02-28T12:21:37;61.07;;;30.53;;
11024;SDS011;22890;51.820;8.682;2024-02-28T12:24:09;56.83;;;27.63;;
11024;SDS011;22890;51.820;8.682;2024-02-28T12:26:37;56.53;;;28.27;;
11024;SDS011;22890;51.820;8.682;2024-02-28T12:29:04;61.00;;;28.40;;
11024;SDS011;22890;51.820;8.682;2024-02-28T12:31:31;56.03;;;27.37;;
11024;SDS011;22890;51.820;8.682;2024-02-28T12:33:58;58.10;;;28.37;;
11024;SDS011;22890;51.820;8.682;2024-02-28T12:36:25;62.13;;;28.03;;
11024;SDS011;22890;51.820;8.682;2024-02-28T12:38:53;52.90;;;25.93;;
11024;SDS011;22890;51.820;8.682;2024-02-28T12:41:20;50.93;;;25.10;;
11024;SDS011;22890;51.820;8.682;2024-02-28T12:43:46;56.00;;;26.07;;
11024;SDS011;22890;51.820;8.682;2024-02-28T12:46:13;61.93;;;28.90;;
11024;SDS011;22890;51.820;8.682;2024-02-28T12:48:40;50.20;;;25.30;;
11024;SDS011;22890;51.820;8.682;2024-02-28T12:51:08;53.23;;;25.90;;
11024;SDS011;22890;51.820;8.682;2024-02-28T12:53:36;53.67;;;25.60;;
11024;SDS011;22890;51.820;8.682;2024-02-28T12:56:03;55.17;;;25.80;;
11024;SDS011;22890;51.820;8.682;2024-02-28T12:58:30;46.40;;;23.47;;
11024;SDS011;22890;51.820;8.682;2024-02-28T13:00:57;48.97;;;25.67;;
11024;SDS011;22890;51.820;8.682;2024-02-28T13:03:23;47.27;;;24.70;;
11024;SDS011;22890;51.820;8.682;2024-02-28T13:05:51;48.73;;;25.97;;
11024;SDS011;22890;51.820;8.682;2024-02-28T13:08:17;51.13;;;25.43;;
11024;SDS011;22890;51.820;8.682;2024-02-28T13:10:44;48.30;;;24.13;;
11024;SDS011;22890;51.820;8.682;2024-02-28T13:13:11;46.07;;;24.13;;
11024;SDS011;22890;51.820;8.682;2024-02-28T13:15:40;51.57;;;25.10;;
11024;SDS011;22890;51.820;8.682;2024-02-28T13:18:07;49.43;;;24.07;;
11024;SDS011;22890;51.820;8.682;2024-02-28T13:20:37;50.33;;;24.50;;
11024;SDS011;22890;51.820;8.682;2024-02-28T13:23:04;44.63;;;22.60;;
11024;SDS011;22890;51.820;8.682;2024-02-28T13:25:31;46.87;;;26.17;;
11024;SDS011;22890;51.820;8.682;2024-02-28T13:27:58;47.90;;;23.57;;
11024;SDS011;22890;51.820;8.682;2024-02-28T13:30:25;41.03;;;21.27;;
11024;SDS011;22890;51.820;8.682;2024-02-28T13:32:51;45.03;;;22.20;;
11024;SDS011;22890;51.820;8.682;2024-02-28T13:35:18;48.07;;;23.13;;
11024;SDS011;22890;51.820;8.682;2024-02-28T13:37:45;49.20;;;25.00;;
11024;SDS011;22890;51.820;8.682;2024-02-28T13:40:12;47.20;;;23.43;;
11024;SDS011;22890;51.820;8.682;2024-02-28T13:42:39;44.03;;;24.20;;
11024;SDS011;22890;51.820;8.682;2024-02-28T13:45:07;45.60;;;22.70;;
11024;SDS011;22890;51.820;8.682;2024-02-28T13:47:35;44.63;;;23.70;;
11024;SDS011;22890;51.820;8.682;2024-02-28T13:50:02;43.07;;;22.43;;
11024;SDS011;22890;51.820;8.682;2024-02-28T13:52:29;46.00;;;22.87;;
11024;SDS011;22890;51.820;8.682;2024-02-28T13:54:55;43.80;;;22.93;;
11024;SDS011;22890;51.820;8.682;2024-02-28T13:57:22;42.03;;;23.83;;
11024;SDS011;22890;51.820;8.682;2024-02-28T13:59:49;41.07;;;22.00;;
11024;SDS011;22890;51.820;8.682;2024-02-28T14:02:20;49.43;;;23.60;;
11024;SDS011;22890;51.820;8.682;2024-02-28T14:04:48;42.10;;;22.07;;
11024;SDS011;22890;51.820;8.682;2024-02-28T14:07:15;43.23;;;22.00;;
11024;SDS011;22890;51.820;8.682;2024-02-28T14:09:42;41.27;;;21.73;;
11024;SDS011;22890;51.820;8.682;2024-02-28T14:12:13;39.70;;;20.63;;
11024;SDS011;22890;51.820;8.682;2024-02-28T14:14:40;47.90;;;23.60;;
11024;SDS011;22890;51.820;8.682;2024-02-28T14:17:07;37.73;;;21.20;;
11024;SDS011;22890;51.820;8.682;2024-02-28T14:19:33;44.10;;;22.50;;
11024;SDS011;22890;51.820;8.682;2024-02-28T14:22:02;43.33;;;22.73;;
11024;SDS011;22890;51.820;8.682;2024-02-28T14:24:29;43.30;;;20.60;;
11024;SDS011;22890;51.820;8.682;2024-02-28T14:26:56;42.37;;;20.53;;